Time;durP1;ratioP1;P1;durP2;ratioP2;P2;SDS_P1;SDS_P2;PMS_P1;PMS_P2;Temp;Humidity;BMP_temperature;BMP_pressure;BME280_temperature;BME280_humidity;BME280_pressure;Samples;Min_cycle;Max_cycle;Signal;HPM_P1;HPM_P2
2022/11/24 00:02:15;;;;;;;;;;;;;;;;;;5053597;28;8914;-64
2022/11/24 00:04:41;;;;;;;;;;;;;;;;;;5054526;28;7035;-64
2022/11/24 00:07:07;;;;;;;;;;;;;;;;;;5054332;28;7148;-64
2022/11/24 00:09:33;;;;;;;;;;;;;;;;;;5054341;28;7169;-65
2022/11/24 00:12:00;;;;;;;;;;;;;;;;;;5054319;28;7035;-68
2022/11/24 00:17:44;;;;;;;;;;;;;;;;;;5054322;28;7145;-68
2022/11/24 00:20:10;;;;;;;;;;;;;;;;;;5054339;28;7199;-64
2022/11/24 00:22:36;;;;;;;;;;;;;;;;;;5063412;28;7165;-64
2022/11/24 00:25:02;;;;;;;;;;;;;;;;;;5075128;28;7053;-64
2022/11/24 00:27:40;;;;;;;;;;;;;;;;;;5074580;28;7307;-64
2022/11/24 00:30:08;;;;;;;;;;;;;;;;;;5074265;28;7069;-64
2022/11/24 00:32:43;;;;;;;;;;;;;;;;;;5074415;28;7189;-64
2022/11/24 00:35:09;;;;;;;;;;;;;;;;;;5074807;28;7087;-64
2022/11/24 00:37:36;;;;;;;;;;;;;;;;;;5074573;28;7357;-64
2022/11/24 00:40:02;;;;;;;;;;;;;;;;;;5074499;28;7427;-65
2022/11/24 00:42:28;;;;;;;;;;;;;;;;;;5074453;28;7161;-64
2022/11/24 00:44:54;;;;;;;;;;;;;;;;;;5074891;28;7360;-65
2022/11/24 00:47:20;;;;;;;;;;;;;;;;;;5075100;28;7350;-64
2022/11/24 00:49:57;;;;;;;;;;;;;;;;;;5074589;28;7318;-64
2022/11/24 00:52:22;;;;;;;;;;;;;;;;;;5074454;28;7186;-64
2022/11/24 00:54:49;;;;;;;;;;;;;;;;;;5074169;28;7192;-64
2022/11/24 00:57:15;;;;;;;;;;;;;;;;;;5074770;28;6939;-64
2022/11/24 00:59:41;;;;;;;;;;;;;;;;;;5075326;28;7243;-64
2022/11/24 01:02:14;;;;;;;;;;;;;;;;;;5074472;28;7139;-64
2022/11/24 01:04:40;;;;;;;;;;;;;;;;;;5073876;28;7032;-65
2022/11/24 01:07:06;;;;;;;;;;;;;;;;;;5056446;28;7196;-64
2022/11/24 01:09:31;;;;;;;;;;;;;;;;;;5073702;28;7174;-64
2022/11/24 01:12:03;;;;;;;;;;;;;;;;;;5074320;28;6821;-64
2022/11/24 01:17:35;;;;;;;;;;;;;;;;;;5073825;28;6987;-65
2022/11/24 01:20:01;;;;;;;;;;;;;;;;;;5073446;28;7852;-64
2022/11/24 01:22:28;;;;;;;;;;;;;;;;;;5074117;28;7084;-64
2022/11/24 01:24:57;;;;;;;;;;;;;;;;;;5054653;28;7187;-64
2022/11/24 01:27:24;;;;;;;;;;;;;;;;;;5054139;28;7428;-64
2022/11/24 01:29:50;;;;;;;;;;;;;;;;;;5054891;28;7224;-64
2022/11/24 01:32:15;;;;;;;;;;;;;;;;;;5057567;28;6829;-64
2022/11/24 01:34:42;;;;;;;;;;;;;;;;;;5057366;28;6946;-65
2022/11/24 01:37:07;;;;;;;;;;;;;;;;;;5057495;28;6951;-64
2022/11/24 01:39:35;;;;;;;;;;;;;;;;;;5057460;28;6944;-64
2022/11/24 01:42:01;;;;;;;;;;;;;;;;;;5056996;28;6919;-64
2022/11/24 01:44:28;;;;;;;;;;;;;;;;;;5057135;28;6955;-64
2022/11/24 01:47:07;;;;;;;;;;;;;;;;;;5057420;28;7255;-64
2022/11/24 01:49:38;;;;;;;;;;;;;;;;;;5057162;28;7213;-64
2022/11/24 01:52:28;;;;;;;;;;;;;;;;;;5057159;28;7079;-64
2022/11/24 01:55:10;;;;;;;;;;;;;;;;;;5057125;28;7383;-64
2022/11/24 01:57:42;;;;;;;;;;;;;;;;;;5057113;28;7020;-64
2022/11/24 02:00:09;;;;;;;;;;;;;;;;;;5057212;28;7229;-64
2022/11/24 02:02:35;;;;;;;;;;;;;;;;;;5057869;28;7445;-64
2022/11/24 02:05:32;;;;;;;;;;;;;;;;;;5056957;28;7249;-64
2022/11/24 02:08:00;;;;;;;;;;;;;;;;;;5038950;28;8893;-64
2022/11/24 02:10:28;;;;;;;;;;;;;;;;;;5056944;28;6904;-64
2022/11/24 02:12:57;;;;;;;;;;;;;;;;;;5057016;28;7504;-64
2022/11/24 02:15:29;;;;;;;;;;;;;;;;;;5056904;28;7166;-64
2022/11/24 02:17:54;;;;;;;;;;;;;;;;;;5056266;28;6990;-64
2022/11/24 02:20:20;;;;;;;;;;;;;;;;;;5056623;28;7372;-64
2022/11/24 02:22:58;;;;;;;;;;;;;;;;;;5038194;28;8447;-64
2022/11/24 02:25:30;;;;;;;;;;;;;;;;;;5047267;28;6981;-65
2022/11/24 02:27:59;;;;;;;;;;;;;;;;;;5056687;28;6832;-64
2022/11/24 02:30:25;;;;;;;;;;;;;;;;;;5056282;28;6974;-64
2022/11/24 02:32:51;;;;;;;;;;;;;;;;;;5056659;28;7333;-64
2022/11/24 02:35:17;;;;;;;;;;;;;;;;;;5057050;28;7278;-64
2022/11/24 02:37:42;;;;;;;;;;;;;;;;;;5056813;28;7111;-64
2022/11/24 02:40:08;;;;;;;;;;;;;;;;;;5056316;28;7179;-64
2022/11/24 02:42:46;;;;;;;;;;;;;;;;;;5055885;28;7051;-64
2022/11/24 02:45:14;;;;;;;;;;;;;;;;;;5056526;28;6902;-64
2022/11/24 02:47:54;;;;;;;;;;;;;;;;;;5056244;28;7449;-64
2022/11/24 02:50:20;;;;;;;;;;;;;;;;;;5055702;28;7288;-64
2022/11/24 02:52:46;;;;;;;;;;;;;;;;;;5056207;28;7230;-68
2022/11/24 02:55:12;;;;;;;;;;;;;;;;;;5056428;28;7043;-64
2022/11/24 02:57:37;;;;;;;;;;;;;;;;;;5055964;28;6993;-64
2022/11/24 03:00:04;;;;;;;;;;;;;;;;;;5054567;28;7179;-65
2022/11/24 03:02:30;;;;;;;;;;;;;;;;;;5056576;28;7277;-65
2022/11/24 03:05:27;;;;;;;;;;;;;;;;;;5055838;28;7352;-65
2022/11/24 03:07:53;;;;;;;;;;;;;;;;;;5056286;28;6846;-65
2022/11/24 03:10:19;;;;;;;;;;;;;;;;;;5055963;28;7129;-65
2022/11/24 03:12:44;;;;;;;;;;;;;;;;;;5055596;28;7522;-65
2022/11/24 03:15:10;;;;;;;;;;;;;;;;;;5055805;28;7121;-65
2022/11/24 03:17:36;;;;;;;;;;;;;;;;;;5055608;28;6945;-65
2022/11/24 03:20:02;;;;;;;;;;;;;;;;;;5055478;28;7035;-65
2022/11/24 03:22:28;;;;;;;;;;;;;;;;;;5055677;28;7158;-65
2022/11/24 03:24:54;;;;;;;;;;;;;;;;;;5055282;28;7193;-65
2022/11/24 03:27:20;;;;;;;;;;;;;;;;;;5055620;28;7098;-65
2022/11/24 03:29:53;;;;;;;;;;;;;;;;;;5055410;28;7302;-65
2022/11/24 03:32:19;;;;;;;;;;;;;;;;;;5055970;28;7085;-65
2022/11/24 03:34:44;;;;;;;;;;;;;;;;;;5055322;28;7132;-65
2022/11/24 03:37:10;;;;;;;;;;;;;;;;;;5055335;28;6870;-65
2022/11/24 03:39:36;;;;;;;;;;;;;;;;;;5055878;28;7310;-65
2022/11/24 03:42:02;;;;;;;;;;;;;;;;;;5055463;28;7294;-65
2022/11/24 03:44:27;;;;;;;;;;;;;;;;;;5055182;28;6996;-65
2022/11/24 03:46:55;;;;;;;;;;;;;;;;;;5054842;28;7978;-65
2022/11/24 03:49:20;;;;;;;;;;;;;;;;;;5054801;28;7062;-65
2022/11/24 03:51:50;;;;;;;;;;;;;;;;;;5054936;28;7192;-65
2022/11/24 03:54:16;;;;;;;;;;;;;;;;;;5054992;28;7138;-65
2022/11/24 03:56:51;;;;;;;;;;;;;;;;;;5055115;28;7276;-65
2022/11/24 03:59:18;;;;;;;;;;;;;;;;;;5055612;28;7476;-65
2022/11/24 04:01:43;;;;;;;;;;;;;;;;;;5054781;28;7205;-65
2022/11/24 04:04:41;;;;;;;;;;;;;;;;;;5054870;28;7021;-65
2022/11/24 04:07:06;;;;;;;;;;;;;;;;;;5055038;28;7137;-65
2022/11/24 04:09:32;;;;;;;;;;;;;;;;;;5054644;28;7419;-65
2022/11/24 04:14:48;;;;;;;;;;;;;;;;;;5055297;28;6978;-65
2022/11/24 04:17:14;;;;;;;;;;;;;;;;;;5054799;28;7125;-65
2022/11/24 04:19:39;;;;;;;;;;;;;;;;;;5043125;28;7493;-65
2022/11/24 04:22:11;;;;;;;;;;;;;;;;;;5034869;28;7113;-65
2022/11/24 04:27:27;;;;;;;;;;;;;;;;;;5054667;28;7048;-65
2022/11/24 04:29:55;;;;;;;;;;;;;;;;;;5054646;28;7073;-68
2022/11/24 04:32:20;;;;;;;;;;;;;;;;;;5054448;28;6965;-69
2022/11/24 04:34:46;;;;;;;;;;;;;;;;;;5054527;28;7076;-69
2022/11/24 04:37:12;;;;;;;;;;;;;;;;;;5054591;28;7113;-69
2022/11/24 04:39:39;;;;;;;;;;;;;;;;;;5054514;28;7119;-69
2022/11/24 04:42:05;;;;;;;;;;;;;;;;;;5054307;28;7182;-69
2022/11/24 04:44:39;;;;;;;;;;;;;;;;;;5054445;28;7456;-69
2022/11/24 04:47:05;;;;;;;;;;;;;;;;;;5054421;28;7471;-69
2022/11/24 04:49:38;;;;;;;;;;;;;;;;;;5054375;28;7254;-69
2022/11/24 04:52:04;;;;;;;;;;;;;;;;;;5054274;28;7161;-69
2022/11/24 04:54:44;;;;;;;;;;;;;;;;;;5054192;28;7148;-69
2022/11/24 04:57:17;;;;;;;;;;;;;;;;;;5054558;28;6895;-69
2022/11/24 05:00:01;;;;;;;;;;;;;;;;;;5054561;28;7339;-69
2022/11/24 05:02:26;;;;;;;;;;;;;;;;;;5054070;28;7083;-69
2022/11/24 05:04:53;;;;;;;;;;;;;;;;;;5055482;28;7137;-69
2022/11/24 05:07:19;;;;;;;;;;;;;;;;;;5057955;28;7978;-69
2022/11/24 05:12:49;;;;;;;;;;;;;;;;;;5058420;28;6801;-70
2022/11/24 05:15:15;;;;;;;;;;;;;;;;;;5057808;28;6825;-70
2022/11/24 05:17:48;;;;;;;;;;;;;;;;;;5057667;28;7215;-70
2022/11/24 05:20:14;;;;;;;;;;;;;;;;;;5057853;28;7097;-69
2022/11/24 05:22:39;;;;;;;;;;;;;;;;;;5057893;28;7243;-69
2022/11/24 05:25:05;;;;;;;;;;;;;;;;;;5056716;28;7150;-69
2022/11/24 05:27:44;;;;;;;;;;;;;;;;;;5057674;28;7922;-69
2022/11/24 05:30:10;;;;;;;;;;;;;;;;;;5057427;28;7144;-69
2022/11/24 05:32:36;;;;;;;;;;;;;;;;;;5058513;28;6840;-69
2022/11/24 05:35:03;;;;;;;;;;;;;;;;;;5057309;28;8152;-69
2022/11/24 05:37:29;;;;;;;;;;;;;;;;;;5057772;28;6939;-69
2022/11/24 05:39:55;;;;;;;;;;;;;;;;;;5057689;28;7037;-69
2022/11/24 05:42:42;;;;;;;;;;;;;;;;;;5057812;28;7388;-69
2022/11/24 05:45:14;;;;;;;;;;;;;;;;;;5057764;28;7080;-69
2022/11/24 05:47:40;;;;;;;;;;;;;;;;;;5057753;28;7160;-69
2022/11/24 05:50:09;;;;;;;;;;;;;;;;;;5057301;28;8747;-69
2022/11/24 05:52:34;;;;;;;;;;;;;;;;;;5057264;28;7512;-69
2022/11/24 05:55:00;;;;;;;;;;;;;;;;;;5057118;28;6958;-69
2022/11/24 05:57:34;;;;;;;;;;;;;;;;;;5057861;28;7139;-70
2022/11/24 06:00:04;;;;;;;;;;;;;;;;;;5057307;28;7646;-69
2022/11/24 06:02:29;;;;;;;;;;;;;;;;;;5057266;28;7120;-69
2022/11/24 06:04:55;;;;;;;;;;;;;;;;;;5057051;28;7126;-69
2022/11/24 06:07:20;;;;;;;;;;;;;;;;;;5056980;28;7081;-69
2022/11/24 06:09:46;;;;;;;;;;;;;;;;;;5057130;28;7063;-69
2022/11/24 06:12:24;;;;;;;;;;;;;;;;;;5057002;28;7063;-69
2022/11/24 06:14:49;;;;;;;;;;;;;;;;;;5056829;28;7143;-69
2022/11/24 06:17:15;;;;;;;;;;;;;;;;;;5056732;28;6952;-69
2022/11/24 06:19:48;;;;;;;;;;;;;;;;;;5057078;28;7342;-69
2022/11/24 06:22:14;;;;;;;;;;;;;;;;;;5056496;28;7239;-69
2022/11/24 06:24:40;;;;;;;;;;;;;;;;;;5054319;28;6982;-69
2022/11/24 06:27:12;;;;;;;;;;;;;;;;;;5056556;28;7166;-69
2022/11/24 06:29:37;;;;;;;;;;;;;;;;;;5056410;28;6933;-69
2022/11/24 06:32:04;;;;;;;;;;;;;;;;;;5056372;28;7556;-69
2022/11/24 06:34:29;;;;;;;;;;;;;;;;;;5056327;28;6955;-69
2022/11/24 06:36:54;;;;;;;;;;;;;;;;;;5056282;28;7153;-69
2022/11/24 06:39:20;;;;;;;;;;;;;;;;;;5056269;28;7067;-69
2022/11/24 06:41:48;;;;;;;;;;;;;;;;;;5056891;28;7025;-69
2022/11/24 06:44:14;;;;;;;;;;;;;;;;;;5056293;28;7308;-69
2022/11/24 06:46:40;;;;;;;;;;;;;;;;;;5056670;28;7134;-68
2022/11/24 06:49:05;;;;;;;;;;;;;;;;;;5056439;28;7148;-68
2022/11/24 06:51:31;;;;;;;;;;;;;;;;;;5056763;28;7158;-71
2022/11/24 06:54:17;;;;;;;;;;;;;;;;;;5056237;28;7384;-70
2022/11/24 06:56:42;;;;;;;;;;;;;;;;;;5056807;28;7194;-69
2022/11/24 06:59:28;;;;;;;;;;;;;;;;;;5056291;28;7169;-71
2022/11/24 07:01:54;;;;;;;;;;;;;;;;;;5055393;28;7013;-71
2022/11/24 07:04:19;;;;;;;;;;;;;;;;;;5056182;28;7249;-71
2022/11/24 07:06:45;;;;;;;;;;;;;;;;;;5055770;28;7355;-71
2022/11/24 07:09:23;;;;;;;;;;;;;;;;;;5056168;28;7165;-69
2022/11/24 07:11:48;;;;;;;;;;;;;;;;;;5054423;28;7248;-69
2022/11/24 07:14:24;;;;;;;;;;;;;;;;;;5055222;28;7015;-69
2022/11/24 07:16:49;;;;;;;;;;;;;;;;;;5037114;28;8448;-69
2022/11/24 07:19:25;;;;;;;;;;;;;;;;;;5054981;28;6917;-69
2022/11/24 07:21:50;;;;;;;;;;;;;;;;;;5055050;28;7006;-69
2022/11/24 07:24:16;;;;;;;;;;;;;;;;;;5054543;28;7370;-69
2022/11/24 07:26:41;;;;;;;;;;;;;;;;;;5054430;28;7182;-69
2022/11/24 07:29:36;;;;;;;;;;;;;;;;;;5054552;28;7377;-69
2022/11/24 07:32:01;;;;;;;;;;;;;;;;;;5054385;28;7066;-70
2022/11/24 07:34:42;;;;;;;;;;;;;;;;;;5054424;28;7382;-70
2022/11/24 07:37:07;;;;;;;;;;;;;;;;;;5054851;28;7085;-70
2022/11/24 07:39:34;;;;;;;;;;;;;;;;;;5054910;28;7474;-69
2022/11/24 07:41:59;;;;;;;;;;;;;;;;;;5054488;28;7210;-69
2022/11/24 07:44:25;;;;;;;;;;;;;;;;;;5054500;28;7209;-69
2022/11/24 07:46:52;;;;;;;;;;;;;;;;;;5054663;28;7140;-69
2022/11/24 07:49:19;;;;;;;;;;;;;;;;;;5054932;28;7165;-69
2022/11/24 07:51:45;;;;;;;;;;;;;;;;;;5054342;28;6943;-69
2022/11/24 07:54:25;;;;;;;;;;;;;;;;;;5054881;28;7089;-69
2022/11/24 07:56:51;;;;;;;;;;;;;;;;;;5054584;28;6952;-69
2022/11/24 07:59:17;;;;;;;;;;;;;;;;;;5054369;28;7191;-69
2022/11/24 08:01:42;;;;;;;;;;;;;;;;;;5054398;28;6891;-69
2022/11/24 08:04:24;;;;;;;;;;;;;;;;;;5054423;28;7128;-70
2022/11/24 08:06:50;;;;;;;;;;;;;;;;;;5054181;28;7179;-70
2022/11/24 08:09:24;;;;;;;;;;;;;;;;;;5054229;28;7161;-70
2022/11/24 08:11:50;;;;;;;;;;;;;;;;;;5054457;28;7390;-70
2022/11/24 08:14:16;;;;;;;;;;;;;;;;;;5054097;28;7145;-70
2022/11/24 08:16:42;;;;;;;;;;;;;;;;;;5054776;28;7024;-69
2022/11/24 08:19:23;;;;;;;;;;;;;;;;;;5054019;28;7075;-69
2022/11/24 08:21:49;;;;;;;;;;;;;;;;;;5054304;28;6988;-69
2022/11/24 08:24:45;;;;;;;;;;;;;;;;;;5049918;28;7460;-69
2022/11/24 08:27:11;;;;;;;;;;;;;;;;;;5034201;28;7168;-69
2022/11/24 08:29:37;;;;;;;;;;;;;;;;;;5033965;28;7242;-69
2022/11/24 08:32:03;;;;;;;;;;;;;;;;;;5034207;28;7150;-69
2022/11/24 08:34:53;;;;;;;;;;;;;;;;;;5034025;28;7105;-69
2022/11/24 08:37:19;;;;;;;;;;;;;;;;;;5049147;28;7125;-69
2022/11/24 08:40:19;;;;;;;;;;;;;;;;;;5055342;28;7156;-69
2022/11/24 08:42:44;;;;;;;;;;;;;;;;;;5058078;28;7083;-69
2022/11/24 08:45:28;;;;;;;;;;;;;;;;;;5056768;28;7337;-69
2022/11/24 08:47:55;;;;;;;;;;;;;;;;;;5058066;28;7127;-69
2022/11/24 08:50:22;;;;;;;;;;;;;;;;;;5058029;28;7132;-69
2022/11/24 08:55:57;;;;;;;;;;;;;;;;;;5057378;28;6700;-69
2022/11/24 08:58:23;;;;;;;;;;;;;;;;;;5057353;28;7195;-69
2022/11/24 09:00:48;;;;;;;;;;;;;;;;;;5057662;28;7451;-69
2022/11/24 09:03:14;;;;;;;;;;;;;;;;;;5057378;28;8235;-69
2022/11/24 09:05:52;;;;;;;;;;;;;;;;;;5057276;28;7617;-69
2022/11/24 09:08:18;;;;;;;;;;;;;;;;;;5057452;28;7219;-69
2022/11/24 09:10:54;;;;;;;;;;;;;;;;;;5057641;28;7029;-69
2022/11/24 09:13:20;;;;;;;;;;;;;;;;;;5056378;28;7183;-70
2022/11/24 09:15:45;;;;;;;;;;;;;;;;;;5057228;28;7152;-71
2022/11/24 09:18:11;;;;;;;;;;;;;;;;;;5038484;28;7132;-74
2022/11/24 09:20:57;;;;;;;;;;;;;;;;;;5037558;28;7172;-74
2022/11/24 09:23:23;;;;;;;;;;;;;;;;;;5049161;28;7067;-74
2022/11/24 09:25:48;;;;;;;;;;;;;;;;;;5057809;28;7136;-74
2022/11/24 09:28:25;;;;;;;;;;;;;;;;;;5057063;28;7139;-73
2022/11/24 09:30:50;;;;;;;;;;;;;;;;;;5057338;28;7053;-74
2022/11/24 09:36:21;;;;;;;;;;;;;;;;;;5057079;28;6691;-75
2022/11/24 09:38:46;;;;;;;;;;;;;;;;;;5057024;28;7384;-75
2022/11/24 09:41:31;;;;;;;;;;;;;;;;;;5042008;28;7093;-75
2022/11/24 09:43:56;;;;;;;;;;;;;;;;;;5053716;28;7389;-75
2022/11/24 09:46:55;;;;;;;;;;;;;;;;;;5049741;28;7128;-75
2022/11/24 09:49:29;;;;;;;;;;;;;;;;;;5049614;28;7046;-76
2022/11/24 09:52:26;;;;;;;;;;;;;;;;;;5056885;28;7114;-75
2022/11/24 09:54:56;;;;;;;;;;;;;;;;;;5057283;28;7222;-76
2022/11/24 09:57:35;;;;;;;;;;;;;;;;;;5056922;28;7138;-75
2022/11/24 10:00:06;;;;;;;;;;;;;;;;;;5056612;28;6966;-75
2022/11/24 10:02:42;;;;;;;;;;;;;;;;;;5056546;28;7369;-76
2022/11/24 10:05:11;;;;;;;;;;;;;;;;;;5056502;28;7076;-76
2022/11/24 10:07:46;;;;;;;;;;;;;;;;;;5052165;28;7026;-76
2022/11/24 10:10:12;;;;;;;;;;;;;;;;;;5036663;28;7196;-76
2022/11/24 10:13:13;;;;;;;;;;;;;;;;;;5035746;28;8389;-76
2022/11/24 10:19:06;;;;;;;;;;;;;;;;;;5056291;28;6798;-76
2022/11/24 10:21:34;;;;;;;;;;;;;;;;;;5056236;28;7147;-76
2022/11/24 10:24:19;;;;;;;;;;;;;;;;;;5043087;28;7070;-76
2022/11/24 10:26:50;;;;;;;;;;;;;;;;;;5072406;28;7294;-76
2022/11/24 10:29:38;;;;;;;;;;;;;;;;;;5058531;28;8852;-76
2022/11/24 10:32:07;;;;;;;;;;;;;;;;;;5058191;28;8486;-76
2022/11/24 10:37:38;;;;;;;;;;;;;;;;;;5075393;28;6703;-76
2022/11/24 10:40:27;;;;;;;;;;;;;;;;;;5076191;28;7456;-76
2022/11/24 10:43:16;;;;;;;;;;;;;;;;;;5036817;28;7604;-76
2022/11/24 10:45:41;;;;;;;;;;;;;;;;;;5055946;28;7265;-76
2022/11/24 10:48:23;;;;;;;;;;;;;;;;;;5055943;28;6920;-76
2022/11/24 10:50:53;;;;;;;;;;;;;;;;;;5055774;28;7570;-76
2022/11/24 10:53:34;;;;;;;;;;;;;;;;;;5056300;28;6891;-76
2022/11/24 10:56:02;;;;;;;;;;;;;;;;;;5055859;28;6998;-76
2022/11/24 10:58:39;;;;;;;;;;;;;;;;;;5037790;28;7237;-76
2022/11/24 11:01:14;;;;;;;;;;;;;;;;;;5055315;28;6931;-76
2022/11/24 11:04:00;;;;;;;;;;;;;;;;;;5054734;28;7052;-76
2022/11/24 11:06:30;;;;;;;;;;;;;;;;;;5055669;28;7276;-76
2022/11/24 11:09:08;;;;;;;;;;;;;;;;;;5055136;28;8135;-76
2022/11/24 11:11:34;;;;;;;;;;;;;;;;;;5055867;28;7115;-75
2022/11/24 11:14:07;;;;;;;;;;;;;;;;;;5055530;28;7028;-76
2022/11/24 11:16:41;;;;;;;;;;;;;;;;;;5055029;28;7020;-76
2022/11/24 11:19:31;;;;;;;;;;;;;;;;;;5055372;28;7046;-76
2022/11/24 11:28:10;;;;;;;;;;;;;;;;;;5067092;28;6722;-76
2022/11/24 11:30:36;;;;;;;;;;;;;;;;;;5075066;28;7130;-76
2022/11/24 11:33:02;;;;;;;;;;;;;;;;;;5075303;28;6849;-76
2022/11/24 11:35:31;;;;;;;;;;;;;;;;;;5075442;28;7203;-76
2022/11/24 11:38:05;;;;;;;;;;;;;;;;;;5075403;28;7208;-76
2022/11/24 11:40:31;;;;;;;;;;;;;;;;;;5057983;28;7176;-76
2022/11/24 11:43:04;;;;;;;;;;;;;;;;;;5075122;28;7143;-76
2022/11/24 11:45:37;;;;;;;;;;;;;;;;;;5057795;28;7252;-74
2022/11/24 11:48:02;;;;;;;;;;;;;;;;;;5075283;28;7184;-74
2022/11/24 11:50:39;;;;;;;;;;;;;;;;;;5074764;28;7059;-73
2022/11/24 11:53:23;;;;;;;;;;;;;;;;;;5051042;28;8797;-74
2022/11/24 11:55:51;;;;;;;;;;;;;;;;;;5054837;28;7845;-74
2022/11/24 11:58:17;;;;;;;;;;;;;;;;;;5054527;28;7016;-73
2022/11/24 12:00:52;;;;;;;;;;;;;;;;;;5054644;28;7081;-73
2022/11/24 12:03:34;;;;;;;;;;;;;;;;;;5053242;28;7130;-67
2022/11/24 12:06:22;;;;;;;;;;;;;;;;;;5054340;28;7442;-67
2022/11/24 12:08:49;;;;;;;;;;;;;;;;;;5017365;28;7700;-67
2022/11/24 12:11:33;;;;;;;;;;;;;;;;;;5054766;28;7223;-67
2022/11/24 12:14:05;;;;;;;;;;;;;;;;;;5053122;28;8418;-67
2022/11/24 12:16:33;;;;;;;;;;;;;;;;;;5054493;28;7268;-73
2022/11/24 12:19:02;;;;;;;;;;;;;;;;;;5054925;28;7099;-74
2022/11/24 12:21:48;;;;;;;;;;;;;;;;;;5054306;28;7297;-74
2022/11/24 12:24:29;;;;;;;;;;;;;;;;;;5014118;28;7342;-74
2022/11/24 12:27:03;;;;;;;;;;;;;;;;;;5053993;28;7708;-74
2022/11/24 12:29:28;;;;;;;;;;;;;;;;;;5054319;28;6921;-74
2022/11/24 12:31:57;;;;;;;;;;;;;;;;;;5054144;28;7006;-73
2022/11/24 12:34:56;;;;;;;;;;;;;;;;;;5054328;28;7324;-74
2022/11/24 12:37:40;;;;;;;;;;;;;;;;;;5010819;28;7574;-73
2022/11/24 12:40:24;;;;;;;;;;;;;;;;;;5054352;28;7058;-73
2022/11/24 12:43:04;;;;;;;;;;;;;;;;;;5054203;28;6917;-73
2022/11/24 12:45:42;;;;;;;;;;;;;;;;;;5053552;28;8501;-74
2022/11/24 12:48:13;;;;;;;;;;;;;;;;;;5053916;28;7206;-74
2022/11/24 12:50:42;;;;;;;;;;;;;;;;;;5054100;28;7377;-74
2022/11/24 12:53:15;;;;;;;;;;;;;;;;;;5069519;28;7178;-74
2022/11/24 12:55:42;;;;;;;;;;;;;;;;;;5073908;28;6900;-73
2022/11/24 12:58:16;;;;;;;;;;;;;;;;;;5074041;28;7054;-73
2022/11/24 13:00:45;;;;;;;;;;;;;;;;;;5074018;28;7093;-73
2022/11/24 13:03:13;;;;;;;;;;;;;;;;;;5074061;28;7404;-73
2022/11/24 13:05:54;;;;;;;;;;;;;;;;;;5073823;28;6981;-73
2022/11/24 13:08:21;;;;;;;;;;;;;;;;;;5073938;28;7435;-73
2022/11/24 13:10:48;;;;;;;;;;;;;;;;;;5074137;28;6940;-73
2022/11/24 13:13:14;;;;;;;;;;;;;;;;;;5074119;28;7268;-73
2022/11/24 13:16:03;;;;;;;;;;;;;;;;;;5074192;28;6870;-73
2022/11/24 13:18:47;;;;;;;;;;;;;;;;;;5045535;28;8399;-73
2022/11/24 13:21:31;;;;;;;;;;;;;;;;;;5074137;28;7326;-73
2022/11/24 13:24:00;;;;;;;;;;;;;;;;;;5074076;28;7094;-73
2022/11/24 13:26:43;;;;;;;;;;;;;;;;;;5075845;28;7121;-74
2022/11/24 13:29:26;;;;;;;;;;;;;;;;;;5078431;28;7144;-73
2022/11/24 13:32:01;;;;;;;;;;;;;;;;;;5077713;28;7097;-73
2022/11/24 13:34:42;;;;;;;;;;;;;;;;;;5073898;28;7120;-73
2022/11/24 13:37:18;;;;;;;;;;;;;;;;;;5076501;28;7206;-73
2022/11/24 13:39:49;;;;;;;;;;;;;;;;;;5076659;28;8224;-73
2022/11/24 13:42:15;;;;;;;;;;;;;;;;;;5077244;28;7229;-73
2022/11/24 13:44:45;;;;;;;;;;;;;;;;;;5076862;28;6987;-73
2022/11/24 13:47:45;;;;;;;;;;;;;;;;;;5076847;28;7189;-73
2022/11/24 13:50:21;;;;;;;;;;;;;;;;;;5043712;28;7089;-73
2022/11/24 13:52:59;;;;;;;;;;;;;;;;;;5076534;28;7162;-73
2022/11/24 13:55:38;;;;;;;;;;;;;;;;;;5066831;28;7196;-73
2022/11/24 13:58:12;;;;;;;;;;;;;;;;;;5056787;28;7100;-73
2022/11/24 14:00:56;;;;;;;;;;;;;;;;;;5056289;28;7326;-73
2022/11/24 14:03:33;;;;;;;;;;;;;;;;;;5056984;28;6831;-73
2022/11/24 14:06:01;;;;;;;;;;;;;;;;;;5056378;28;7021;-73
2022/11/24 14:08:32;;;;;;;;;;;;;;;;;;5056825;28;7408;-73
2022/11/24 14:11:00;;;;;;;;;;;;;;;;;;5056445;28;7135;-73
2022/11/24 14:13:28;;;;;;;;;;;;;;;;;;5056589;28;7091;-73
2022/11/24 14:16:03;;;;;;;;;;;;;;;;;;5056147;28;6948;-73
2022/11/24 14:18:30;;;;;;;;;;;;;;;;;;5056496;28;7122;-74
2022/11/24 14:20:57;;;;;;;;;;;;;;;;;;5056252;28;6940;-73
2022/11/24 14:23:23;;;;;;;;;;;;;;;;;;5056445;28;7225;-73
2022/11/24 14:25:50;;;;;;;;;;;;;;;;;;5056140;28;7125;-74
2022/11/24 14:28:27;;;;;;;;;;;;;;;;;;5055869;28;6833;-75
2022/11/24 14:31:18;;;;;;;;;;;;;;;;;;5056161;28;7081;-74
2022/11/24 14:33:44;;;;;;;;;;;;;;;;;;5056056;28;7270;-72
2022/11/24 14:36:14;;;;;;;;;;;;;;;;;;5055423;28;7928;-74
2022/11/24 14:38:40;;;;;;;;;;;;;;;;;;5055798;28;7511;-72
2022/11/24 14:41:15;;;;;;;;;;;;;;;;;;5056093;28;7202;-73
2022/11/24 14:43:41;;;;;;;;;;;;;;;;;;5055651;28;7209;-73
2022/11/24 14:46:12;;;;;;;;;;;;;;;;;;5055535;28;7091;-74
2022/11/24 14:48:45;;;;;;;;;;;;;;;;;;5056002;28;7168;-75
2022/11/24 14:51:19;;;;;;;;;;;;;;;;;;5055773;28;8452;-72
2022/11/24 14:53:47;;;;;;;;;;;;;;;;;;5055449;28;7375;-73
2022/11/24 14:56:24;;;;;;;;;;;;;;;;;;5055150;28;7286;-73
2022/11/24 14:58:51;;;;;;;;;;;;;;;;;;5055731;28;7110;-73
2022/11/24 15:01:19;;;;;;;;;;;;;;;;;;5055660;28;7253;-73
2022/11/24 15:03:45;;;;;;;;;;;;;;;;;;5055690;28;7123;-73
2022/11/24 15:06:19;;;;;;;;;;;;;;;;;;5055139;28;7067;-73
2022/11/24 15:08:48;;;;;;;;;;;;;;;;;;5055192;28;7287;-73
2022/11/24 15:11:14;;;;;;;;;;;;;;;;;;5055604;28;6958;-73
2022/11/24 15:13:50;;;;;;;;;;;;;;;;;;5055566;28;6990;-73
2022/11/24 15:16:19;;;;;;;;;;;;;;;;;;5055298;28;6961;-73
2022/11/24 15:18:46;;;;;;;;;;;;;;;;;;5055248;28;6997;-73
2022/11/24 15:21:13;;;;;;;;;;;;;;;;;;5037248;28;8483;-73
2022/11/24 15:23:40;;;;;;;;;;;;;;;;;;5054933;28;7189;-73
2022/11/24 15:26:07;;;;;;;;;;;;;;;;;;5054512;28;6891;-73
2022/11/24 15:28:33;;;;;;;;;;;;;;;;;;5055017;28;7084;-73
2022/11/24 15:31:01;;;;;;;;;;;;;;;;;;5054842;28;7212;-73
2022/11/24 15:33:27;;;;;;;;;;;;;;;;;;5055168;28;7477;-73
2022/11/24 15:35:53;;;;;;;;;;;;;;;;;;5053753;28;7150;-73
2022/11/24 15:38:19;;;;;;;;;;;;;;;;;;5054592;28;8204;-73
2022/11/24 15:40:46;;;;;;;;;;;;;;;;;;5054725;28;7342;-73
2022/11/24 15:43:20;;;;;;;;;;;;;;;;;;5054823;28;7162;-73
2022/11/24 15:45:46;;;;;;;;;;;;;;;;;;5053956;28;7115;-73
2022/11/24 15:48:13;;;;;;;;;;;;;;;;;;5052913;28;9129;-73
2022/11/24 15:50:39;;;;;;;;;;;;;;;;;;5054267;28;7185;-73
2022/11/24 15:53:05;;;;;;;;;;;;;;;;;;5054743;28;7139;-73
2022/11/24 15:55:31;;;;;;;;;;;;;;;;;;5054457;28;6996;-73
2022/11/24 15:57:57;;;;;;;;;;;;;;;;;;5054493;28;7990;-73
2022/11/24 16:00:23;;;;;;;;;;;;;;;;;;5054340;28;7187;-73
2022/11/24 16:02:49;;;;;;;;;;;;;;;;;;5054744;28;7635;-73
2022/11/24 16:05:16;;;;;;;;;;;;;;;;;;5054467;28;7142;-74
2022/11/24 16:07:41;;;;;;;;;;;;;;;;;;5054335;28;7179;-66
2022/11/24 16:22:22;;;;;;;;;;;;;;;;;;5033576;27;1648906;-73
2022/11/24 16:24:47;;;;;;;;;;;;;;;;;;5071555;28;7130;-74
2022/11/24 16:27:13;;;;;;;;;;;;;;;;;;5071320;28;7390;-74
2022/11/24 16:29:38;;;;;;;;;;;;;;;;;;5064067;28;6891;-74
2022/11/24 16:32:20;;;;;;;;;;;;;;;;;;5051257;28;6918;-74
2022/11/24 16:34:46;;;;;;;;;;;;;;;;;;5051211;28;7211;-74
2022/11/24 16:49:12;;;;;;;;;;;;;;;;;;5092568;27;6603;-65
2022/11/24 16:51:37;;;;;;;;;;;;;;;;;;5071583;28;7314;-66
2022/11/24 16:54:03;;;;;;;;;;;;;;;;;;5070959;28;7112;-65
2022/11/24 16:56:29;;;;;;;;;;;;;;;;;;5071565;28;7347;-65
2022/11/24 16:59:14;;;;;;;;;;;;;;;;;;5071292;28;6922;-66
2022/11/24 17:01:39;;;;;;;;;;;;;;;;;;5071637;28;7163;-65
2022/11/24 17:04:16;;;;;;;;;;;;;;;;;;5071315;28;7028;-65
2022/11/24 17:06:42;;;;;;;;;;;;;;;;;;5071097;28;7042;-65
2022/11/24 17:09:08;;;;;;;;;;;;;;;;;;5071442;28;7415;-66
2022/11/24 17:12:04;;;;;;;;;;;;;;;;;;5071387;28;7359;-65
2022/11/24 17:14:29;;;;;;;;;;;;;;;;;;5071764;28;7074;-66
2022/11/24 17:23:04;;;;;;;;;;;;;;;;;;5070917;28;7063;-65
2022/11/24 17:25:30;;;;;;;;;;;;;;;;;;5070876;28;7145;-65
2022/11/24 17:28:26;;;;;;;;;;;;;;;;;;5069581;28;8469;-65
2022/11/24 17:30:52;;;;;;;;;;;;;;;;;;5070621;28;7340;-65
2022/11/24 17:33:23;;;;;;;;;;;;;;;;;;5070696;28;7307;-65
2022/11/24 17:35:49;;;;;;;;;;;;;;;;;;5071650;28;6954;-65
2022/11/24 17:38:14;;;;;;;;;;;;;;;;;;5071583;28;7041;-66
2022/11/24 17:40:45;;;;;;;;;;;;;;;;;;5070751;28;7256;-65
2022/11/24 17:43:11;;;;;;;;;;;;;;;;;;5070871;28;6926;-66
2022/11/24 17:45:36;;;;;;;;;;;;;;;;;;5070783;28;6905;-65
2022/11/24 17:48:02;;;;;;;;;;;;;;;;;;5068881;28;7106;-65
2022/11/24 17:50:27;;;;;;;;;;;;;;;;;;5056734;28;6875;-65
2022/11/24 17:52:53;;;;;;;;;;;;;;;;;;5057211;28;6925;-65
2022/11/24 17:55:24;;;;;;;;;;;;;;;;;;5057169;28;7333;-65
2022/11/24 17:57:50;;;;;;;;;;;;;;;;;;5057033;28;6964;-65
2022/11/24 18:00:16;;;;;;;;;;;;;;;;;;5056144;28;8628;-65
2022/11/24 18:03:09;;;;;;;;;;;;;;;;;;5057002;28;7119;-65
2022/11/24 18:05:36;;;;;;;;;;;;;;;;;;5058000;28;7230;-65
2022/11/24 18:08:02;;;;;;;;;;;;;;;;;;5056914;28;7448;-65
2022/11/24 18:10:28;;;;;;;;;;;;;;;;;;5056862;28;7256;-65
2022/11/24 18:12:53;;;;;;;;;;;;;;;;;;5056844;28;7118;-65
2022/11/24 18:15:19;;;;;;;;;;;;;;;;;;5056811;28;7059;-65
2022/11/24 18:17:44;;;;;;;;;;;;;;;;;;5056421;28;7343;-65
2022/11/24 18:20:10;;;;;;;;;;;;;;;;;;5056478;28;7320;-65
2022/11/24 18:22:36;;;;;;;;;;;;;;;;;;5056129;28;8780;-65
2022/11/24 18:25:02;;;;;;;;;;;;;;;;;;5056611;28;7375;-65
2022/11/24 18:27:27;;;;;;;;;;;;;;;;;;5056193;28;7202;-65
2022/11/24 18:29:53;;;;;;;;;;;;;;;;;;5056331;28;7124;-65
2022/11/24 18:32:19;;;;;;;;;;;;;;;;;;5056707;28;6823;-65